createdAt,value
2022-11-05T00:00:43.419Z,91.2
2022-11-05T00:01:43.728Z,91.3
2022-11-05T00:02:43.443Z,91.2
2022-11-05T00:03:43.677Z,91.1
2022-11-05T00:04:43.484Z,91.2
2022-11-05T00:05:43.488Z,91.2
2022-11-05T00:06:43.504Z,91.3
2022-11-05T00:07:43.511Z,91.6
2022-11-05T00:08:43.525Z,91.5
2022-11-05T00:09:43.545Z,91.3
2022-11-05T00:10:43.548Z,91.5
2022-11-05T00:11:43.565Z,91.3
2022-11-05T00:12:43.566Z,91.2
2022-11-05T00:13:43.581Z,91.7
2022-11-05T00:14:43.595Z,91.3
2022-11-05T00:15:43.607Z,91.1
2022-11-05T00:16:43.609Z,91.2
2022-11-05T00:17:43.612Z,91.1
2022-11-05T00:18:43.640Z,91.2
2022-11-05T00:19:43.656Z,91.1
2022-11-05T00:20:43.665Z,91.1
2022-11-05T00:21:43.683Z,91.1
2022-11-05T00:22:43.709Z,91.2
2022-11-05T00:23:43.704Z,91.2
2022-11-05T00:24:43.743Z,91.2
2022-11-05T00:25:43.772Z,91.2
2022-11-05T00:26:43.734Z,91.4
2022-11-05T00:27:43.742Z,91.4
2022-11-05T00:28:43.793Z,91.6
2022-11-05T00:29:43.772Z,91.7
2022-11-05T00:30:43.805Z,91.9
2022-11-05T00:31:43.805Z,92.0
2022-11-05T00:32:43.817Z,92.1
2022-11-05T00:33:43.832Z,92.1
2022-11-05T00:34:43.838Z,92.2
2022-11-05T00:35:43.853Z,92.2
2022-11-05T00:36:43.877Z,92.2
2022-11-05T00:37:50.888Z,92.2
2022-11-05T00:38:43.903Z,92.0
2022-11-05T00:39:43.922Z,92.0
2022-11-05T00:40:43.940Z,92.0
2022-11-05T00:41:43.963Z,92.1
2022-11-05T00:42:43.977Z,92.0
2022-11-05T00:43:43.990Z,91.7
2022-11-05T00:44:43.994Z,91.6
2022-11-05T00:45:44.013Z,91.8
2022-11-05T00:46:44.021Z,91.8
2022-11-05T00:47:44.042Z,91.5
2022-11-05T00:48:44.042Z,91.7
2022-11-05T00:49:44.067Z,91.9
2022-11-05T00:50:44.070Z,91.7
2022-11-05T00:51:44.082Z,91.6
2022-11-05T00:52:44.091Z,91.6
2022-11-05T00:53:44.112Z,91.7
2022-11-05T00:54:44.119Z,91.6
2022-11-05T00:55:44.134Z,91.7
2022-11-05T00:56:44.147Z,91.4
2022-11-05T00:57:44.149Z,91.6
2022-11-05T00:58:44.167Z,91.6
2022-11-05T00:59:44.184Z,91.6
2022-11-05T01:00:44.197Z,91.6
2022-11-05T01:01:44.599Z,91.5
2022-11-05T01:02:44.617Z,91.5
2022-11-05T01:03:52.172Z,91.0
2022-11-05T01:04:44.243Z,91.1
2022-11-05T01:05:44.296Z,91.1
2022-11-05T01:06:44.277Z,91.1
2022-11-05T01:07:44.276Z,91.0
2022-11-05T01:08:44.314Z,90.7
2022-11-05T01:09:44.297Z,90.6
2022-11-05T01:10:44.321Z,90.4
2022-11-05T01:11:44.319Z,90.4
2022-11-05T01:12:44.383Z,90.3
2022-11-05T01:13:44.348Z,90.1
2022-11-05T01:14:44.366Z,90.1
2022-11-05T01:15:44.387Z,90.1
2022-11-05T01:16:44.410Z,90.3
2022-11-05T01:17:44.413Z,90.2
2022-11-05T01:18:44.426Z,90.2
2022-11-05T01:19:44.437Z,90.2
2022-11-05T01:20:44.467Z,90.2
2022-11-05T01:21:44.473Z,90.1
2022-11-05T01:22:44.472Z,90.1
2022-11-05T01:23:44.486Z,90.0
2022-11-05T01:24:44.499Z,89.9
2022-11-05T01:25:44.515Z,89.9
2022-11-05T01:26:44.510Z,89.9
2022-11-05T01:27:44.539Z,90.0
2022-11-05T01:28:44.871Z,90.0
2022-11-05T01:29:44.549Z,89.8
2022-11-05T01:30:44.564Z,89.8
2022-11-05T01:31:44.590Z,89.9
2022-11-05T01:32:44.612Z,89.9
2022-11-05T01:33:44.634Z,89.8
2022-11-05T01:34:44.649Z,89.9
2022-11-05T01:35:44.660Z,90.0
2022-11-05T01:36:44.678Z,90.1
2022-11-05T01:37:44.681Z,90.1
2022-11-05T01:38:44.708Z,90.2
2022-11-05T01:39:44.704Z,90.1
2022-11-05T01:40:44.735Z,90.0
2022-11-05T01:41:44.719Z,89.9
2022-11-05T01:42:44.754Z,89.9
2022-11-05T01:43:44.753Z,89.8
2022-11-05T01:44:44.771Z,90.0
2022-11-05T01:45:44.780Z,89.9
2022-11-05T01:46:44.788Z,90.0
2022-11-05T01:47:44.803Z,90.0
2022-11-05T01:48:44.815Z,90.1
2022-11-05T01:49:44.822Z,90.2
2022-11-05T01:50:44.830Z,90.1
2022-11-05T01:51:44.832Z,90.2
2022-11-05T02:09:45.327Z,90.3
2022-11-05T02:10:44.963Z,90.3
2022-11-05T02:11:44.970Z,90.5
2022-11-05T02:12:44.976Z,90.5
2022-11-05T02:13:44.981Z,90.5
2022-11-05T02:14:44.990Z,90.5
2022-11-05T02:15:44.994Z,90.4
2022-11-05T02:16:45.005Z,90.4
2022-11-05T02:17:45.005Z,90.3
2022-11-05T02:18:45.014Z,90.3
2022-11-05T02:19:45.025Z,90.5
2022-11-05T02:20:52.554Z,90.4
2022-11-05T02:21:45.030Z,90.5
2022-11-05T02:22:45.030Z,90.6
2022-11-05T02:23:45.037Z,90.5
2022-11-05T02:24:45.053Z,90.5
2022-11-05T02:25:45.066Z,90.3
2022-11-05T02:26:45.069Z,90.3
2022-11-05T02:27:45.079Z,90.2
2022-11-05T02:28:45.085Z,90.3
2022-11-05T02:29:45.094Z,90.6
2022-11-05T02:30:45.094Z,90.6
2022-11-05T02:31:45.124Z,90.7
2022-11-05T02:32:45.117Z,90.8
2022-11-05T02:33:45.127Z,90.6
2022-11-05T02:34:45.135Z,90.4
2022-11-05T02:35:45.142Z,90.5
2022-11-05T02:36:45.137Z,90.5
2022-11-05T02:37:45.144Z,90.6
2022-11-05T02:38:45.156Z,90.6
2022-11-05T02:39:45.160Z,90.8
2022-11-05T02:40:45.171Z,90.9
2022-11-05T02:41:45.176Z,90.8
2022-11-05T02:42:45.179Z,90.8
2022-11-05T02:43:45.186Z,90.8
2022-11-05T02:44:45.183Z,90.7
2022-11-05T02:45:45.197Z,90.9
2022-11-05T02:46:45.210Z,90.9
2022-11-05T02:47:45.213Z,90.8
2022-11-05T02:48:45.209Z,90.6
2022-11-05T02:49:45.230Z,90.7
2022-11-05T02:50:45.224Z,90.7
2022-11-05T02:51:45.237Z,90.6
2022-11-05T02:52:45.258Z,90.5
2022-11-05T02:53:45.258Z,90.5
2022-11-05T02:54:45.258Z,90.4
2022-11-05T02:55:45.281Z,90.4
2022-11-05T02:56:45.282Z,90.4
2022-11-05T02:57:45.286Z,90.6
2022-11-05T02:58:45.295Z,90.7
2022-11-05T02:59:45.309Z,90.9
2022-11-05T03:00:45.317Z,90.7
2022-11-05T03:01:45.884Z,90.7
2022-11-05T03:02:45.764Z,90.7
2022-11-05T03:03:45.451Z,90.8
2022-11-05T03:04:45.340Z,90.6
2022-11-05T03:05:45.352Z,90.7
2022-11-05T03:06:45.356Z,90.6
2022-11-05T03:07:45.360Z,90.6
2022-11-05T03:08:45.364Z,90.5
2022-11-05T03:09:45.375Z,90.5
2022-11-05T03:10:45.388Z,90.5
2022-11-05T03:11:45.401Z,90.5
2022-11-05T03:12:45.387Z,90.6
2022-11-05T03:13:45.394Z,90.6
2022-11-05T03:14:45.402Z,90.7
2022-11-05T03:15:45.410Z,90.7
2022-11-05T03:16:45.413Z,90.5
2022-11-05T03:17:45.434Z,90.6
2022-11-05T03:18:45.430Z,90.7
2022-11-05T03:19:45.445Z,90.5
2022-11-05T03:20:45.445Z,90.6
2022-11-05T03:21:45.474Z,90.5
2022-11-05T03:22:45.501Z,90.9
2022-11-05T03:23:45.460Z,90.8
2022-11-05T03:24:45.463Z,90.7
2022-11-05T03:25:45.477Z,90.6
2022-11-05T03:26:45.477Z,90.8
2022-11-05T03:27:45.495Z,91.0
2022-11-05T03:28:45.488Z,90.9
2022-11-05T03:29:45.495Z,90.8
2022-11-05T03:30:45.502Z,90.7
2022-11-05T03:31:45.508Z,90.8
2022-11-05T03:32:45.519Z,90.8
2022-11-05T03:33:45.527Z,90.8
2022-11-05T03:34:45.523Z,90.8
2022-11-05T03:35:45.530Z,90.8
2022-11-05T03:36:45.538Z,90.8
2022-11-05T03:37:45.543Z,90.7
2022-11-05T03:38:45.557Z,90.7
2022-11-05T03:39:45.555Z,90.8
2022-11-05T03:40:45.570Z,90.8
2022-11-05T03:41:45.592Z,90.7
2022-11-05T03:42:45.575Z,90.9
2022-11-05T03:43:45.579Z,90.8
2022-11-05T03:44:45.590Z,90.8
2022-11-05T03:45:45.596Z,91.0
2022-11-05T03:46:45.598Z,91.0
2022-11-05T03:47:45.608Z,90.8
2022-11-05T03:48:45.833Z,90.8
2022-11-05T03:49:45.616Z,90.7
2022-11-05T03:50:45.622Z,90.9
2022-11-05T03:51:45.628Z,90.8
2022-11-05T03:52:45.641Z,90.7
2022-11-05T03:53:45.642Z,90.8
2022-11-05T03:54:45.649Z,91.0
2022-11-05T03:55:45.649Z,91.0
2022-11-05T03:56:45.656Z,91.1
2022-11-05T03:57:45.664Z,91.0
2022-11-05T03:58:45.675Z,91.1
2022-11-05T03:59:45.691Z,91.2
2022-11-05T04:00:45.683Z,91.2
2022-11-05T04:01:46.089Z,91.2
2022-11-05T04:02:46.159Z,91.2
2022-11-05T04:03:45.705Z,91.0
2022-11-05T04:04:45.709Z,91.0
2022-11-05T04:05:45.712Z,91.0
2022-11-05T04:06:45.717Z,90.8
2022-11-05T04:07:45.724Z,90.9
2022-11-05T04:08:45.743Z,90.8
2022-11-05T04:09:45.730Z,90.8
2022-11-05T04:10:45.738Z,90.9
2022-11-05T04:11:45.747Z,90.9
2022-11-05T04:12:45.753Z,91.0
2022-11-05T04:13:45.781Z,90.9
2022-11-05T04:14:45.765Z,90.9
2022-11-05T04:15:45.765Z,90.8
2022-11-05T04:16:45.775Z,90.9
2022-11-05T04:17:45.784Z,90.8
2022-11-05T04:18:45.785Z,90.8
2022-11-05T04:19:45.790Z,90.9
2022-11-05T04:20:45.798Z,90.8
2022-11-05T04:21:45.811Z,90.8
2022-11-05T04:22:45.813Z,90.8
2022-11-05T04:23:45.830Z,90.8
2022-11-05T04:24:45.829Z,90.9
2022-11-05T04:25:45.830Z,91.0
2022-11-05T04:26:45.832Z,91.1
2022-11-05T04:27:45.840Z,91.0
2022-11-05T04:28:45.848Z,91.0
2022-11-05T04:29:45.854Z,91.0
2022-11-05T04:30:45.862Z,90.9
2022-11-05T04:31:45.871Z,90.9
2022-11-05T04:32:45.870Z,90.9
2022-11-05T04:33:45.871Z,90.9
2022-11-05T04:34:45.877Z,90.8
2022-11-05T04:35:45.890Z,90.9
2022-11-05T04:36:45.887Z,91.0
2022-11-05T04:37:45.906Z,90.9
2022-11-05T04:38:45.928Z,91.1
2022-11-05T04:39:45.916Z,90.9
2022-11-05T04:40:45.920Z,90.9
2022-11-05T04:41:45.972Z,90.9
2022-11-05T04:42:45.937Z,91.2
2022-11-05T04:43:45.952Z,90.9
2022-11-05T04:44:45.956Z,90.9
2022-11-05T04:45:45.971Z,90.9
2022-11-05T04:46:45.969Z,90.7
2022-11-05T04:47:45.972Z,90.8
2022-11-05T04:48:45.982Z,90.8
2022-11-05T04:49:45.993Z,90.8
2022-11-05T04:50:46.002Z,91.0
2022-11-05T04:51:46.005Z,91.1
2022-11-05T04:52:46.009Z,91.1
2022-11-05T04:53:46.017Z,90.9
2022-11-05T04:54:46.027Z,90.9
2022-11-05T04:55:46.029Z,90.9
2022-11-05T04:56:46.027Z,90.9
2022-11-05T04:57:46.034Z,90.9
2022-11-05T04:58:46.041Z,91.0
2022-11-05T04:59:46.049Z,91.0
2022-11-05T05:00:46.312Z,91.0
2022-11-05T05:01:46.352Z,91.0
2022-11-05T05:02:46.063Z,91.0
2022-11-05T05:03:46.067Z,91.0
2022-11-05T05:04:46.085Z,91.0
2022-11-05T05:05:46.095Z,91.0
2022-11-05T05:06:46.102Z,90.8
2022-11-05T05:07:46.104Z,91.0
2022-11-05T05:08:46.106Z,90.8
2022-11-05T05:09:46.127Z,90.7
2022-11-05T05:10:46.115Z,90.8
2022-11-05T05:11:46.118Z,90.8
2022-11-05T05:12:46.127Z,90.7
2022-11-05T05:13:46.135Z,90.8
2022-11-05T05:14:46.143Z,91.1
2022-11-05T05:15:46.147Z,91.1
2022-11-05T05:16:46.147Z,91.2
2022-11-05T05:17:46.160Z,91.3
2022-11-05T05:18:46.802Z,91.3
2022-11-05T05:19:46.168Z,91.3
2022-11-05T05:20:46.177Z,91.5
2022-11-05T05:21:46.182Z,91.3
2022-11-05T05:22:46.191Z,91.1
2022-11-05T05:23:46.232Z,91.2
2022-11-05T05:24:53.301Z,91.3
2022-11-05T05:25:46.209Z,91.2
2022-11-05T05:26:46.224Z,91.2
2022-11-05T05:27:46.236Z,91.1
2022-11-05T05:28:46.238Z,91.0
2022-11-05T05:29:46.245Z,91.2
2022-11-05T05:30:46.258Z,91.0
2022-11-05T05:31:46.273Z,91.0
2022-11-05T05:32:46.266Z,91.1
2022-11-05T05:33:46.279Z,91.1
2022-11-05T05:34:46.283Z,91.0
2022-11-05T05:35:46.295Z,91.1
2022-11-05T05:36:46.306Z,91.2
2022-11-05T05:37:46.316Z,91.0
2022-11-05T05:38:46.316Z,91.0
2022-11-05T05:39:46.324Z,91.0
2022-11-05T05:40:46.339Z,91.1
2022-11-05T05:41:46.350Z,91.0
2022-11-05T05:42:46.345Z,91.0
2022-11-05T05:43:46.358Z,91.0
2022-11-05T05:44:46.368Z,91.2
2022-11-05T05:45:46.372Z,91.2
2022-11-05T05:46:46.376Z,91.4
2022-11-05T05:47:46.385Z,91.1
2022-11-05T05:48:46.395Z,91.1
2022-11-05T05:49:46.406Z,91.2
2022-11-05T05:50:46.403Z,91.2
2022-11-05T05:51:46.407Z,91.1
2022-11-05T05:52:46.425Z,91.1
2022-11-05T05:53:46.441Z,91.2
2022-11-05T05:54:46.437Z,91.1
2022-11-05T05:55:46.436Z,91.2
2022-11-05T05:56:46.455Z,91.2
2022-11-05T05:57:46.462Z,91.0
2022-11-05T05:58:46.464Z,91.0
2022-11-05T05:59:46.482Z,91.0
2022-11-05T06:00:46.481Z,90.9
2022-11-05T06:01:46.897Z,91.0
2022-11-05T06:02:47.033Z,91.0
2022-11-05T06:03:46.502Z,91.1
2022-11-05T06:04:46.509Z,91.2
2022-11-05T06:05:46.515Z,91.3
2022-11-05T06:06:46.522Z,91.4
2022-11-05T06:07:46.533Z,91.3
2022-11-05T06:08:46.540Z,91.2
2022-11-05T06:09:46.547Z,91.2
2022-11-05T06:10:46.755Z,91.2
2022-11-05T06:11:46.572Z,91.2
2022-11-05T06:12:46.579Z,91.1
2022-11-05T06:13:46.583Z,91.2
2022-11-05T06:14:46.606Z,91.2
2022-11-05T06:15:46.599Z,91.2
2022-11-05T06:16:46.623Z,91.1
2022-11-05T06:17:46.612Z,91.2
2022-11-05T06:18:46.624Z,91.0
2022-11-05T06:19:46.625Z,91.2
2022-11-05T06:20:46.645Z,91.0
2022-11-05T06:21:46.665Z,91.0
2022-11-05T06:22:46.658Z,91.0
2022-11-05T06:23:46.691Z,91.0
2022-11-05T06:24:46.661Z,91.1
2022-11-05T06:25:46.688Z,91.1
2022-11-05T06:26:46.704Z,91.1
2022-11-05T06:27:46.686Z,91.2
2022-11-05T06:28:46.692Z,91.1
2022-11-05T06:29:46.697Z,91.2
2022-11-05T06:30:46.714Z,91.2
2022-11-05T06:31:46.731Z,91.3
2022-11-05T06:32:46.729Z,91.3
2022-11-05T06:33:46.726Z,91.2
2022-11-05T06:34:46.740Z,91.2
2022-11-05T06:35:46.746Z,91.1
2022-11-05T06:36:46.751Z,91.2
2022-11-05T06:37:46.757Z,91.1
2022-11-05T06:38:46.770Z,91.1
2022-11-05T06:39:46.769Z,91.0
2022-11-05T06:40:46.775Z,91.0
2022-11-05T06:42:46.798Z,91.1
2022-11-05T06:43:46.818Z,91.0
2022-11-05T06:44:46.835Z,90.9
2022-11-05T06:45:46.819Z,91.0
2022-11-05T06:46:48.914Z,90.9
2022-11-05T06:47:46.823Z,90.9
2022-11-05T06:48:46.838Z,90.9
2022-11-05T06:49:46.839Z,91.0
2022-11-05T06:50:46.853Z,90.9
2022-11-05T06:51:46.860Z,91.0
2022-11-05T06:52:46.863Z,90.9
2022-11-05T06:53:46.869Z,90.9
2022-11-05T06:54:46.895Z,91.0
2022-11-05T06:55:46.885Z,90.9
2022-11-05T06:56:46.945Z,91.0
2022-11-05T06:57:46.923Z,91.1
2022-11-05T06:58:46.903Z,91.0
2022-11-05T06:59:46.905Z,90.9
2022-11-05T07:00:47.203Z,90.9
2022-11-05T07:01:47.475Z,91.0
2022-11-05T07:02:46.947Z,91.0
2022-11-05T07:03:46.936Z,91.0
2022-11-05T07:04:46.946Z,90.9
2022-11-05T07:05:46.944Z,91.0
2022-11-05T07:06:46.962Z,90.8
2022-11-05T07:07:46.966Z,90.7
2022-11-05T07:08:46.972Z,90.8
2022-11-05T07:09:46.982Z,90.8
2022-11-05T07:10:46.986Z,90.8
2022-11-05T07:11:46.990Z,90.7
2022-11-05T07:12:47.003Z,90.7
2022-11-05T07:13:47.005Z,90.8
2022-11-05T07:14:47.020Z,90.8
2022-11-05T07:15:47.026Z,90.8
2022-11-05T07:16:47.035Z,90.7
2022-11-05T07:17:47.034Z,90.7
2022-11-05T07:18:47.036Z,90.7
2022-11-05T07:19:47.051Z,90.7
2022-11-05T07:20:47.059Z,90.7
2022-11-05T07:21:47.052Z,90.9
2022-11-05T07:22:47.055Z,91.0
2022-11-05T07:23:47.067Z,91.3
2022-11-05T07:24:47.095Z,91.3
2022-11-05T07:25:47.093Z,91.2
2022-11-05T07:26:47.096Z,91.2
2022-11-05T07:27:47.106Z,91.0
2022-11-05T07:28:47.113Z,91.0
2022-11-05T07:29:47.129Z,90.9
2022-11-05T07:30:47.127Z,91.0
2022-11-05T07:31:47.152Z,90.9
2022-11-05T07:32:47.149Z,90.8
2022-11-05T07:33:47.168Z,90.7
2022-11-05T07:34:47.169Z,90.8
2022-11-05T07:35:47.172Z,90.8
2022-11-05T07:36:47.182Z,90.7
2022-11-05T07:37:47.200Z,90.8
2022-11-05T07:38:47.201Z,90.7
2022-11-05T07:39:47.210Z,90.6
2022-11-05T07:40:47.221Z,90.5
2022-11-05T07:41:47.228Z,90.4
2022-11-05T07:42:47.250Z,90.4
2022-11-05T07:43:47.252Z,90.4
2022-11-05T07:44:47.254Z,90.3
2022-11-05T07:45:47.258Z,90.3
2022-11-05T07:46:47.264Z,90.3
2022-11-05T07:47:47.273Z,90.2
2022-11-05T07:48:47.284Z,90.1
2022-11-05T07:49:47.294Z,90.1
2022-11-05T07:50:47.300Z,90.2
2022-11-05T07:51:47.310Z,90.3
2022-11-05T07:52:47.309Z,90.3
2022-11-05T07:53:47.308Z,90.4
2022-11-05T07:54:47.328Z,90.5
2022-11-05T07:55:47.347Z,90.5
2022-11-05T07:56:47.345Z,90.6
2022-11-05T07:57:47.349Z,90.5
2022-11-05T07:58:47.356Z,90.6
2022-11-05T07:59:47.368Z,90.6
2022-11-05T08:00:47.758Z,90.5
2022-11-05T08:01:48.238Z,90.4
2022-11-05T08:02:48.113Z,90.3
2022-11-05T08:03:47.775Z,90.3
2022-11-05T08:04:47.417Z,90.3
2022-11-05T08:05:47.492Z,90.4
2022-11-05T08:06:47.616Z,90.3
2022-11-05T08:07:47.406Z,90.3
2022-11-05T08:08:47.416Z,90.3
2022-11-05T08:09:47.416Z,90.3
2022-11-05T08:10:47.430Z,90.3
2022-11-05T08:11:47.423Z,90.2
2022-11-05T08:12:47.429Z,90.2
2022-11-05T08:13:47.435Z,90.1
2022-11-05T08:14:47.441Z,90.2
2022-11-05T08:15:47.442Z,90.2
2022-11-05T08:16:47.445Z,90.2
2022-11-05T08:17:47.559Z,90.1
2022-11-05T08:18:47.472Z,90.1
2022-11-05T08:19:47.471Z,90.0
2022-11-05T08:20:47.479Z,90.1
2022-11-05T08:21:47.486Z,90.2
2022-11-05T08:22:47.498Z,90.2
2022-11-05T08:23:47.496Z,90.2
2022-11-05T08:24:47.505Z,90.1
2022-11-05T08:25:47.515Z,90.1
2022-11-05T08:26:47.517Z,90.1
2022-11-05T08:27:47.518Z,90.2
2022-11-05T08:28:47.527Z,90.1
2022-11-05T08:29:47.529Z,90.1
2022-11-05T08:30:47.538Z,90.1
2022-11-05T08:31:47.537Z,90.3
2022-11-05T08:32:47.547Z,90.3
2022-11-05T08:33:47.555Z,90.2
2022-11-05T08:34:47.568Z,90.2
2022-11-05T08:35:47.560Z,90.2
2022-11-05T08:36:47.573Z,90.1
2022-11-05T08:37:47.572Z,90.1
2022-11-05T08:38:47.586Z,90.1
2022-11-05T08:39:47.602Z,90.1
2022-11-05T08:40:47.618Z,90.1
2022-11-05T08:41:47.608Z,90.1
2022-11-05T08:42:47.618Z,90.1
2022-11-05T08:43:47.631Z,90.1
2022-11-05T08:44:47.665Z,90.0
2022-11-05T08:45:47.682Z,90.0
2022-11-05T08:46:47.644Z,90.0
2022-11-05T08:47:47.654Z,89.9
2022-11-05T08:48:47.663Z,89.9
2022-11-05T08:49:47.669Z,89.7
2022-11-05T08:50:47.712Z,89.9
2022-11-05T08:51:47.695Z,90.1
2022-11-05T08:52:47.689Z,90.1
2022-11-05T08:53:47.702Z,90.1
2022-11-05T08:54:47.704Z,89.8
2022-11-05T08:55:47.962Z,89.9
2022-11-05T08:56:47.727Z,89.9
2022-11-05T08:57:47.734Z,90.0
2022-11-05T08:58:47.731Z,89.9
2022-11-05T08:59:47.749Z,89.8
2022-11-05T09:00:48.091Z,89.6
2022-11-05T09:01:48.252Z,89.5
2022-11-05T09:02:47.773Z,89.3
2022-11-05T09:03:47.778Z,89.6
2022-11-05T09:04:47.797Z,89.4
2022-11-05T09:05:47.786Z,89.5
2022-11-05T09:06:47.791Z,89.4
2022-11-05T09:07:47.805Z,89.4
2022-11-05T09:08:47.800Z,89.4
2022-11-05T09:09:47.813Z,89.4
2022-11-05T09:10:47.854Z,89.2
2022-11-05T09:12:12.551Z,89.2
2022-11-05T09:12:47.849Z,89.3
2022-11-05T09:13:47.854Z,89.3
2022-11-05T09:14:47.866Z,89.0
2022-11-05T09:15:47.871Z,89.0
2022-11-05T09:16:47.886Z,89.0
2022-11-05T09:17:47.887Z,89.0
2022-11-05T09:18:47.888Z,88.6
2022-11-05T09:19:47.903Z,89.3
2022-11-05T09:20:47.906Z,89.1
2022-11-05T09:21:47.907Z,89.2
2022-11-05T09:22:47.919Z,89.2
2022-11-05T09:23:47.930Z,88.9
2022-11-05T09:24:47.939Z,88.5
2022-11-05T09:25:47.943Z,88.9
2022-11-05T09:26:47.939Z,89.0
2022-11-05T09:27:47.949Z,88.5
2022-11-05T09:28:47.953Z,88.7
2022-11-05T09:29:47.962Z,88.8
2022-11-05T09:30:47.967Z,88.5
2022-11-05T09:31:47.969Z,88.6
2022-11-05T09:32:47.974Z,88.5
2022-11-05T09:33:47.991Z,88.6
2022-11-05T09:34:47.998Z,88.3
2022-11-05T09:35:48.005Z,88.7
2022-11-05T09:36:48.026Z,88.7
2022-11-05T09:37:48.027Z,88.1
2022-11-05T09:38:48.050Z,88.5
2022-11-05T09:39:48.060Z,88.3
2022-11-05T09:40:48.054Z,87.8
2022-11-05T09:41:48.045Z,88.2
2022-11-05T09:42:48.064Z,88.0
2022-11-05T09:43:48.072Z,87.3
2022-11-05T09:44:48.077Z,87.8
2022-11-05T09:45:48.083Z,88.2
2022-11-05T09:46:48.092Z,88.3
2022-11-05T09:47:48.099Z,88.2
2022-11-05T09:48:48.133Z,88.0
2022-11-05T09:49:48.115Z,88.2
2022-11-05T09:50:48.127Z,88.3
2022-11-05T09:51:48.137Z,87.6
2022-11-05T09:52:48.143Z,88.0
2022-11-05T09:53:48.142Z,87.7
2022-11-05T09:54:48.170Z,86.9
2022-11-05T09:55:48.165Z,87.4
2022-11-05T09:56:48.179Z,86.6
2022-11-05T09:57:48.206Z,85.9
2022-11-05T09:58:48.200Z,86.4
2022-11-05T09:59:48.206Z,85.6
2022-11-05T10:00:48.380Z,85.9
2022-11-05T10:01:48.942Z,86.5
2022-11-05T10:02:48.231Z,85.5
2022-11-05T10:03:48.251Z,85.5
2022-11-05T10:04:48.251Z,86.4
2022-11-05T10:05:48.539Z,86.2
2022-11-05T10:06:48.265Z,86.6
2022-11-05T10:07:48.290Z,86.4
2022-11-05T10:08:48.276Z,86.3
2022-11-05T10:09:48.292Z,86.5
2022-11-05T10:10:48.298Z,86.4
2022-11-05T10:11:48.310Z,86.3
2022-11-05T10:12:48.321Z,85.1
2022-11-05T10:13:48.337Z,86.5
2022-11-05T10:14:48.338Z,86.3
2022-11-05T10:15:48.383Z,85.2
2022-11-05T10:16:48.358Z,85.8
2022-11-05T10:17:48.366Z,85.5
2022-11-05T10:18:48.372Z,85.0
2022-11-05T10:19:48.394Z,85.1
2022-11-05T10:20:48.401Z,85.2
2022-11-05T10:22:07.492Z,84.8
2022-11-05T10:22:50.046Z,85.7
2022-11-05T10:23:48.409Z,86.1
2022-11-05T10:24:48.515Z,85.8
2022-11-05T10:25:48.433Z,85.9
2022-11-05T10:26:48.435Z,86.1
2022-11-05T10:27:48.447Z,85.4
2022-11-05T10:28:48.456Z,84.9
2022-11-05T10:29:48.476Z,84.9
2022-11-05T10:30:48.482Z,83.7
2022-11-05T10:31:48.485Z,85.0
2022-11-05T10:32:48.501Z,84.1
2022-11-05T10:33:48.500Z,85.0
2022-11-05T10:34:48.511Z,85.1
2022-11-05T10:35:48.521Z,84.6
2022-11-05T10:36:48.522Z,84.2
2022-11-05T10:37:48.532Z,84.8
2022-11-05T10:38:48.607Z,83.6
2022-11-05T10:39:48.547Z,83.3
2022-11-05T10:40:48.595Z,83.8
2022-11-05T10:41:48.563Z,84.1
2022-11-05T10:42:48.569Z,83.4
2022-11-05T10:43:48.586Z,82.4
2022-11-05T10:44:48.587Z,83.3
2022-11-05T10:45:48.602Z,82.9
2022-11-05T10:46:48.601Z,82.3
2022-11-05T10:47:48.616Z,82.4
2022-11-05T10:48:48.627Z,82.2
2022-11-05T10:49:48.636Z,82.7
2022-11-05T10:50:48.639Z,82.3
2022-11-05T10:51:48.664Z,80.7
2022-11-05T10:52:48.660Z,79.5
2022-11-05T10:53:48.669Z,80.5
2022-11-05T10:54:48.674Z,80.4
2022-11-05T10:55:48.688Z,80.3
2022-11-05T10:56:48.692Z,80.3
2022-11-05T10:57:48.694Z,80.8
2022-11-05T10:58:48.706Z,80.4
2022-11-05T10:59:48.718Z,79.8
2022-11-05T11:00:48.902Z,80.4
2022-11-05T11:01:49.207Z,79.5
2022-11-05T11:02:48.745Z,78.9
2022-11-05T11:03:49.005Z,79.7
2022-11-05T11:04:48.759Z,80.2
2022-11-05T11:05:48.768Z,79.1
2022-11-05T11:06:48.787Z,79.7
2022-11-05T11:07:48.787Z,79.6
2022-11-05T11:08:48.794Z,79.0
2022-11-05T11:09:48.811Z,78.8
2022-11-05T11:10:48.819Z,78.6
2022-11-05T11:11:48.824Z,78.2
2022-11-05T11:12:48.825Z,78.4
2022-11-05T11:13:48.835Z,77.9
2022-11-05T11:14:48.841Z,78.2
2022-11-05T11:15:48.845Z,78.1
2022-11-05T11:16:48.857Z,79.0
2022-11-05T11:17:48.868Z,77.4
2022-11-05T11:18:48.872Z,76.3
2022-11-05T11:19:48.880Z,76.0
2022-11-05T11:20:48.891Z,75.9
2022-11-05T11:21:48.902Z,75.7
2022-11-05T11:22:48.908Z,75.7
2022-11-05T11:23:48.921Z,76.0
2022-11-05T11:24:48.951Z,76.0
2022-11-05T11:25:48.967Z,75.8
2022-11-05T11:26:48.945Z,75.5
2022-11-05T11:27:48.961Z,75.3
2022-11-05T11:28:48.977Z,74.2
2022-11-05T11:29:49.963Z,74.2
2022-11-05T11:30:48.988Z,74.3
2022-11-05T11:31:49.076Z,74.5
2022-11-05T11:32:49.017Z,74.5
2022-11-05T11:33:49.014Z,74.0
2022-11-05T11:34:49.154Z,74.3
2022-11-05T11:35:49.044Z,73.7
2022-11-05T11:36:49.055Z,73.6
2022-11-05T11:37:49.061Z,73.8
2022-11-05T11:38:49.062Z,73.6
2022-11-05T11:39:49.067Z,73.9
2022-11-05T11:40:49.076Z,74.1
2022-11-05T11:41:49.103Z,74.1
2022-11-05T11:42:49.085Z,73.9
2022-11-05T11:43:49.105Z,73.6
2022-11-05T11:44:49.110Z,73.7
2022-11-05T11:45:49.123Z,73.6
2022-11-05T11:46:49.142Z,73.7
2022-11-05T11:47:49.141Z,73.8
2022-11-05T11:48:49.160Z,74.0
2022-11-05T11:49:49.162Z,74.0
2022-11-05T11:50:49.161Z,73.8
2022-11-05T11:51:50.447Z,73.6
2022-11-05T11:52:49.196Z,73.8
2022-11-05T11:53:49.193Z,73.7
2022-11-05T11:54:49.190Z,73.7
2022-11-05T11:55:49.215Z,73.8
2022-11-05T11:56:49.208Z,73.6
2022-11-05T11:57:49.224Z,73.7
2022-11-05T11:58:49.233Z,73.8
2022-11-05T12:00:09.929Z,73.6
2022-11-05T12:00:49.261Z,73.4
2022-11-05T12:01:49.390Z,73.4
2022-11-05T12:02:49.548Z,73.2
2022-11-05T12:03:49.282Z,73.1
2022-11-05T12:04:49.287Z,72.9
2022-11-05T12:05:49.310Z,72.5
2022-11-05T12:06:49.307Z,72.5
2022-11-05T12:07:49.319Z,71.7
2022-11-05T12:09:06.370Z,71.4
2022-11-05T12:09:49.329Z,71.7
2022-11-05T12:10:49.333Z,71.5
2022-11-05T12:11:49.341Z,71.3
2022-11-05T12:12:49.362Z,71.4
2022-11-05T12:13:49.595Z,71.6
2022-11-05T12:14:49.372Z,70.9
2022-11-05T12:15:49.397Z,71.2
2022-11-05T12:16:49.397Z,71.3
2022-11-05T12:17:49.406Z,71.9
2022-11-05T12:18:49.417Z,71.5
2022-11-05T12:19:49.425Z,71.4
2022-11-05T12:20:58.683Z,71.3
2022-11-05T12:21:53.766Z,71.5
2022-11-05T12:22:49.460Z,71.5
2022-11-05T12:23:49.463Z,71.4
2022-11-05T12:24:49.474Z,71.2
2022-11-05T12:25:49.478Z,71.2
2022-11-05T12:26:49.486Z,71.3
2022-11-05T12:27:49.503Z,71.2
2022-11-05T12:29:49.507Z,71.5
2022-11-05T12:30:49.513Z,71.3
2022-11-05T12:31:49.525Z,71.1
2022-11-05T12:32:49.947Z,71.0
2022-11-05T12:33:49.541Z,71.0
2022-11-05T12:34:49.550Z,71.3
2022-11-05T12:35:58.248Z,70.9
2022-11-05T12:36:49.566Z,71.0
2022-11-05T12:37:49.571Z,71.2
2022-11-05T12:38:49.579Z,71.2
2022-11-05T12:39:49.585Z,70.9
2022-11-05T12:40:49.601Z,70.7
2022-11-05T12:41:49.600Z,70.5
2022-11-05T12:42:49.607Z,70.7
2022-11-05T12:43:49.618Z,71.0
2022-11-05T12:44:49.630Z,71.2
2022-11-05T12:45:49.642Z,71.3
2022-11-05T12:46:49.648Z,71.5
2022-11-05T12:47:49.656Z,71.4
2022-11-05T12:48:49.655Z,71.1
2022-11-05T12:49:49.674Z,71.2
2022-11-05T12:50:49.678Z,71.3
2022-11-05T12:51:49.684Z,71.1
2022-11-05T12:52:49.693Z,71.2
2022-11-05T12:53:49.700Z,71.0
2022-11-05T12:54:49.720Z,71.0
2022-11-05T12:55:49.782Z,71.4
2022-11-05T12:56:49.753Z,70.8
2022-11-05T12:57:49.741Z,71.2
2022-11-05T12:58:49.745Z,71.4
2022-11-05T12:59:49.772Z,71.4
2022-11-05T13:00:49.926Z,71.4
2022-11-05T13:01:50.427Z,70.9
2022-11-05T13:02:49.797Z,71.1
2022-11-05T13:03:49.799Z,70.9
2022-11-05T13:04:49.799Z,70.8
2022-11-05T13:05:49.805Z,71.1
2022-11-05T13:06:49.815Z,71.1
2022-11-05T13:07:49.894Z,71.0
2022-11-05T13:08:49.842Z,71.1
2022-11-05T13:09:49.848Z,71.1
2022-11-05T13:10:49.848Z,70.9
2022-11-05T13:11:49.854Z,71.0
2022-11-05T13:12:49.863Z,71.0
2022-11-05T13:13:49.876Z,70.7
2022-11-05T13:14:49.883Z,70.7
2022-11-05T13:15:49.888Z,70.9
2022-11-05T13:16:49.906Z,70.9
2022-11-05T13:17:49.922Z,70.7
2022-11-05T13:18:49.922Z,71.1
2022-11-05T13:19:49.940Z,70.5
2022-11-05T13:20:49.942Z,70.3
2022-11-05T13:21:49.956Z,69.7
2022-11-05T13:22:49.971Z,69.6
2022-11-05T13:23:49.974Z,69.5
2022-11-05T13:24:49.986Z,69.8
2022-11-05T13:25:49.996Z,69.6
2022-11-05T13:26:50.003Z,69.8
2022-11-05T13:27:50.015Z,69.8
2022-11-05T13:28:50.026Z,69.8
2022-11-05T13:29:50.039Z,69.7
2022-11-05T13:30:50.043Z,69.7
2022-11-05T13:31:50.058Z,69.5
2022-11-05T13:32:50.067Z,69.2
2022-11-05T13:33:50.071Z,68.6
2022-11-05T13:34:50.075Z,69.0
2022-11-05T13:35:50.099Z,69.0
2022-11-05T13:36:50.113Z,69.1
2022-11-05T13:37:50.122Z,68.7